createdAt,value
2019-02-06T00:02:15.672Z,90.71
2019-02-06T00:04:48.193Z,89.60
2019-02-06T00:07:19.624Z,90.21
2019-02-06T00:09:51.078Z,88.67
2019-02-06T00:12:22.803Z,89.13
2019-02-06T00:14:54.279Z,90.03
2019-02-06T00:17:25.792Z,89.91
2019-02-06T00:19:57.171Z,89.62
2019-02-06T00:22:31.520Z,89.13
2019-02-06T00:25:02.984Z,88.53
2019-02-06T00:27:34.422Z,88.39
2019-02-06T00:30:07.944Z,89.90
2019-02-06T00:32:39.389Z,88.71
2019-02-06T00:35:10.901Z,89.12
2019-02-06T00:37:44.258Z,88.16
2019-02-06T00:40:16.026Z,88.48
2019-02-06T00:42:47.466Z,88.75
2019-02-06T00:45:18.958Z,88.86
2019-02-06T00:47:50.405Z,88.89
2019-02-06T00:50:22.168Z,88.49
2019-02-06T00:52:53.628Z,88.86
2019-02-06T00:55:25.112Z,88.88
2019-02-06T00:57:56.670Z,88.83
2019-02-06T01:00:28.365Z,87.92
2019-02-06T01:03:03.741Z,86.90
2019-02-06T01:05:38.537Z,87.54
2019-02-06T01:08:08.445Z,87.46
2019-02-06T01:10:39.942Z,88.88
2019-02-06T01:13:11.392Z,89.06
2019-02-06T01:15:43.162Z,88.93
2019-02-06T01:18:14.717Z,89.00
2019-02-06T01:20:46.256Z,88.48
2019-02-06T01:23:17.810Z,87.97
2019-02-06T01:25:49.573Z,87.61
2019-02-06T01:28:21.394Z,88.56
2019-02-06T01:31:02.859Z,87.06
2019-02-06T01:33:34.294Z,87.09
2019-02-06T01:36:06.001Z,89.59
2019-02-06T01:38:37.470Z,89.11
2019-02-06T01:41:12.728Z,88.27
2019-02-06T01:43:43.321Z,87.93
2019-02-06T01:46:14.801Z,88.40
2019-02-06T01:48:46.245Z,90.01
2019-02-06T01:51:17.906Z,90.16
2019-02-06T01:53:49.377Z,91.02
2019-02-06T01:56:21.050Z,90.24
2019-02-06T01:58:52.549Z,90.64
2019-02-06T02:01:24.050Z,89.19
2019-02-06T02:03:55.634Z,89.19
2019-02-06T02:06:27.325Z,89.84
2019-02-06T02:09:02.088Z,88.72
2019-02-06T02:11:35.206Z,90.32
2019-02-06T02:14:07.300Z,90.40
2019-02-06T02:16:38.840Z,90.07
2019-02-06T02:19:11.362Z,89.06
2019-02-06T02:21:42.847Z,89.41
2019-02-06T02:24:14.306Z,88.73
2019-02-06T02:26:45.795Z,88.22
2019-02-06T02:29:18.678Z,89.80
2019-02-06T02:31:52.417Z,88.90
2019-02-06T02:34:23.815Z,89.33
2019-02-06T02:36:55.292Z,88.56
2019-02-06T02:39:26.741Z,88.18
2019-02-06T02:41:58.222Z,89.61
2019-02-06T02:44:29.712Z,88.70
2019-02-06T02:47:01.262Z,89.51
2019-02-06T02:49:32.734Z,91.02
2019-02-06T02:52:07.434Z,90.44
2019-02-06T02:54:38.884Z,88.76
2019-02-06T02:57:10.362Z,89.96
2019-02-06T02:59:41.828Z,89.32
2019-02-06T03:02:33.282Z,89.03
2019-02-06T03:05:12.695Z,89.48
2019-02-06T03:07:44.148Z,87.48
2019-02-06T03:10:15.625Z,88.13
2019-02-06T03:12:48.982Z,88.19
2019-02-06T03:15:20.598Z,87.31
2019-02-06T03:17:52.204Z,87.98
2019-02-06T03:20:23.803Z,88.00
2019-02-06T03:22:55.222Z,87.91
2019-02-06T03:25:26.670Z,87.01
2019-02-06T03:27:58.165Z,88.14
2019-02-06T03:30:29.592Z,87.66
2019-02-06T03:33:01.066Z,86.19
2019-02-06T03:35:32.643Z,87.37
2019-02-06T03:38:04.128Z,87.68
2019-02-06T03:40:35.589Z,86.61
2019-02-06T03:43:07.179Z,86.66
2019-02-06T03:45:38.627Z,85.90
2019-02-06T03:48:10.098Z,85.79
2019-02-06T03:50:41.528Z,85.85
2019-02-06T03:53:13.016Z,85.04
2019-02-06T03:55:44.648Z,85.95
2019-02-06T03:58:16.175Z,85.39
2019-02-06T04:00:47.671Z,85.47
2019-02-06T04:03:19.135Z,85.90
2019-02-06T04:05:50.609Z,85.98
2019-02-06T04:08:23.442Z,87.06
2019-02-06T04:10:54.828Z,86.26
2019-02-06T04:13:26.328Z,85.72
2019-02-06T04:15:57.975Z,85.58
2019-02-06T04:18:29.499Z,87.45
2019-02-06T04:21:01.444Z,88.12
2019-02-06T04:23:33.329Z,88.20
2019-02-06T04:26:04.773Z,88.78
2019-02-06T04:28:36.507Z,87.17
2019-02-06T04:31:08.076Z,87.29
2019-02-06T04:33:41.292Z,88.74
2019-02-06T04:36:12.809Z,87.19
2019-02-06T04:38:44.360Z,88.06
2019-02-06T04:41:15.863Z,88.88
2019-02-06T04:43:47.368Z,87.80
2019-02-06T04:46:19.162Z,87.84
2019-02-06T04:48:50.607Z,87.75
2019-02-06T04:51:22.065Z,88.41
2019-02-06T04:53:53.525Z,87.81
2019-02-06T04:56:24.996Z,87.70
2019-02-06T04:58:56.839Z,86.98
2019-02-06T05:01:28.289Z,87.87
2019-02-06T05:03:59.777Z,87.46
2019-02-06T05:06:31.213Z,88.69
2019-02-06T05:09:06.042Z,87.43
2019-02-06T05:11:37.886Z,88.17
2019-02-06T05:14:09.311Z,88.97
2019-02-06T05:16:40.759Z,87.88
2019-02-06T05:19:14.019Z,87.98
2019-02-06T05:21:45.645Z,88.34
2019-02-06T05:24:17.484Z,86.57
2019-02-06T05:26:51.919Z,87.53
2019-02-06T05:29:23.507Z,88.00
2019-02-06T05:31:56.234Z,86.81
2019-02-06T05:34:27.654Z,87.21
2019-02-06T05:36:59.499Z,88.04
2019-02-06T05:39:31.017Z,86.34
2019-02-06T05:42:02.510Z,87.14
2019-02-06T05:44:33.971Z,85.38
2019-02-06T05:47:05.514Z,87.31
2019-02-06T05:49:36.915Z,86.15
2019-02-06T05:52:10.658Z,86.33
2019-02-06T05:54:44.673Z,85.72
2019-02-06T05:57:16.113Z,85.81
2019-02-06T05:59:47.673Z,84.71
2019-02-06T06:02:19.160Z,85.38
2019-02-06T06:04:50.649Z,85.65
2019-02-06T06:07:22.103Z,84.79
2019-02-06T06:09:53.619Z,85.21
2019-02-06T06:12:25.091Z,84.71
2019-02-06T06:14:56.581Z,83.54
2019-02-06T06:17:28.350Z,83.04
2019-02-06T06:19:59.746Z,83.44
2019-02-06T06:22:32.303Z,83.51
2019-02-06T06:25:03.805Z,84.22
2019-02-06T06:27:35.307Z,84.41
2019-02-06T06:30:09.939Z,85.37
2019-02-06T06:32:41.427Z,85.24
2019-02-06T06:35:13.239Z,85.28
2019-02-06T06:37:57.146Z,84.04
2019-02-06T06:40:21.054Z,85.11
2019-02-06T06:42:52.532Z,84.90
2019-02-06T06:45:25.298Z,84.65
2019-02-06T06:47:56.754Z,83.49
2019-02-06T06:50:28.474Z,83.90
2019-02-06T06:52:59.967Z,83.91
2019-02-06T06:55:31.461Z,83.88
2019-02-06T06:58:03.209Z,83.95
2019-02-06T07:00:34.793Z,82.87
2019-02-06T07:03:06.391Z,82.61
2019-02-06T07:05:43.097Z,83.80
2019-02-06T07:08:14.565Z,81.86
2019-02-06T07:10:46.053Z,81.53
2019-02-06T07:13:17.527Z,80.99
2019-02-06T07:15:49.676Z,79.55
2019-02-06T07:18:21.111Z,79.49
2019-02-06T07:21:01.395Z,79.94
2019-02-06T07:23:32.799Z,80.30
2019-02-06T07:26:04.282Z,79.13
2019-02-06T07:28:35.749Z,81.38
2019-02-06T07:31:07.615Z,80.68
2019-02-06T07:33:39.099Z,75.09
2019-02-06T07:36:14.009Z,76.43
2019-02-06T07:38:45.568Z,78.18
2019-02-06T07:41:18.483Z,80.21
2019-02-06T07:43:51.315Z,81.00
2019-02-06T07:46:22.831Z,81.15
2019-02-06T07:48:54.309Z,80.01
2019-02-06T07:51:25.811Z,76.22
2019-02-06T07:53:57.247Z,75.63
2019-02-06T07:56:28.993Z,78.08
2019-02-06T07:59:00.534Z,80.37
2019-02-06T08:01:32.147Z,80.28
2019-02-06T08:04:03.631Z,81.35
2019-02-06T08:06:35.102Z,80.12
2019-02-06T08:09:10.235Z,77.97
2019-02-06T08:11:41.752Z,77.38
2019-02-06T08:14:15.033Z,77.09
2019-02-06T08:16:46.513Z,73.75
2019-02-06T08:19:20.329Z,78.21
2019-02-06T08:21:51.823Z,75.50
2019-02-06T08:24:23.501Z,76.42
2019-02-06T08:26:54.950Z,76.48
2019-02-06T08:29:26.498Z,77.86
2019-02-06T08:31:58.008Z,76.34
2019-02-06T08:34:29.727Z,75.00
2019-02-06T08:37:01.766Z,75.30
2019-02-06T08:39:33.452Z,78.22
2019-02-06T08:42:05.420Z,78.57
2019-02-06T08:44:36.852Z,74.70
2019-02-06T08:47:08.354Z,76.17
2019-02-06T08:49:42.122Z,75.20
2019-02-06T08:52:16.306Z,75.40
2019-02-06T08:54:47.801Z,74.86
2019-02-06T08:57:19.253Z,75.80
2019-02-06T08:59:50.794Z,74.77
2019-02-06T09:02:22.291Z,73.67
2019-02-06T09:04:55.973Z,73.85
2019-02-06T09:07:27.088Z,73.84
2019-02-06T09:10:00.868Z,72.10
2019-02-06T09:12:34.295Z,74.52
2019-02-06T09:15:08.546Z,75.55
2019-02-06T09:17:41.508Z,75.84
2019-02-06T09:20:19.517Z,73.53
2019-02-06T09:22:51.038Z,71.29
2019-02-06T09:25:23.409Z,74.08
2019-02-06T09:27:54.980Z,73.36
2019-02-06T09:30:28.788Z,72.95
2019-02-06T09:33:00.353Z,73.08
2019-02-06T09:35:32.217Z,72.67
2019-02-06T09:38:03.855Z,73.83
2019-02-06T09:40:35.409Z,71.52
2019-02-06T09:43:06.886Z,70.21
2019-02-06T09:45:38.498Z,73.35
2019-02-06T09:48:13.164Z,73.76
2019-02-06T09:50:44.633Z,73.44
2019-02-06T09:53:16.242Z,71.77
2019-02-06T09:55:47.710Z,74.09
2019-02-06T09:58:19.263Z,73.96
2019-02-06T10:00:50.979Z,74.20
2019-02-06T10:03:28.264Z,72.93
2019-02-06T10:06:01.578Z,72.14
2019-02-06T10:08:33.076Z,71.90
2019-02-06T10:11:04.527Z,71.65
2019-02-06T10:13:36.042Z,71.47
2019-02-06T10:16:07.558Z,70.21
2019-02-06T10:18:39.098Z,71.05
2019-02-06T10:21:10.594Z,71.63
2019-02-06T10:23:42.196Z,71.33
2019-02-06T10:26:13.656Z,70.77
2019-02-06T10:28:45.174Z,68.07
2019-02-06T10:31:16.638Z,66.60
2019-02-06T10:33:49.738Z,69.31
2019-02-06T10:36:21.188Z,68.92
2019-02-06T10:38:52.640Z,72.91
2019-02-06T10:41:24.112Z,70.24
2019-02-06T10:43:57.471Z,68.60
2019-02-06T10:46:30.030Z,69.44
2019-02-06T10:49:01.532Z,67.61
2019-02-06T10:51:33.112Z,69.66
2019-02-06T10:54:04.628Z,68.36
2019-02-06T10:56:36.136Z,69.15
2019-02-06T10:59:07.782Z,70.23
2019-02-06T11:01:39.174Z,73.27
2019-02-06T11:04:10.654Z,70.54
2019-02-06T11:06:42.138Z,72.35
2019-02-06T11:09:14.032Z,71.37
2019-02-06T11:11:45.525Z,69.15
2019-02-06T11:14:17.073Z,70.13
2019-02-06T11:16:52.368Z,69.91
2019-02-06T11:19:25.334Z,69.92
2019-02-06T11:21:56.828Z,70.55
2019-02-06T11:24:28.401Z,70.95
2019-02-06T11:26:59.839Z,69.66
2019-02-06T11:29:36.812Z,70.21
2019-02-06T11:32:08.287Z,69.25
2019-02-06T11:34:39.783Z,70.84
2019-02-06T11:37:11.548Z,71.82
2019-02-06T11:39:43.438Z,72.19
2019-02-06T11:42:15.106Z,70.74
2019-02-06T11:44:46.576Z,71.95
2019-02-06T11:47:18.098Z,71.61
2019-02-06T11:49:52.136Z,71.92
2019-02-06T11:52:23.890Z,70.75
2019-02-06T11:54:55.356Z,69.70
2019-02-06T11:57:26.812Z,70.22
2019-02-06T12:00:03.663Z,70.81
2019-02-06T12:02:37.286Z,69.94
2019-02-06T12:05:12.483Z,68.81
2019-02-06T12:07:44.039Z,68.89
2019-02-06T12:10:17.563Z,68.40
2019-02-06T12:12:49.311Z,67.73
2019-02-06T12:15:20.793Z,69.92
2019-02-06T12:17:52.299Z,68.46
2019-02-06T12:20:24.546Z,67.81
2019-02-06T12:22:56.064Z,67.78
2019-02-06T12:25:27.673Z,67.55
2019-02-06T12:27:59.187Z,67.16
2019-02-06T12:30:32.802Z,67.61
2019-02-06T12:33:04.379Z,68.73
2019-02-06T12:35:35.916Z,67.95
2019-02-06T12:38:10.985Z,66.48
2019-02-06T12:40:42.466Z,66.31
2019-02-06T12:43:13.960Z,66.47
2019-02-06T12:45:45.625Z,67.09
2019-02-06T12:48:17.075Z,66.69
2019-02-06T12:50:48.657Z,67.09
2019-02-06T12:53:20.127Z,66.80
2019-02-06T12:55:51.640Z,67.54
2019-02-06T12:58:26.444Z,67.67
2019-02-06T13:00:57.988Z,67.99
2019-02-06T13:03:29.457Z,70.20
2019-02-06T13:06:00.964Z,72.23
2019-02-06T13:08:32.430Z,72.15
2019-02-06T13:11:04.355Z,74.27
2019-02-06T13:13:35.787Z,74.51
2019-02-06T13:16:07.301Z,73.79
2019-02-06T13:18:39.622Z,74.68
2019-02-06T13:21:11.108Z,75.00
2019-02-06T13:23:42.843Z,76.00
2019-02-06T13:26:14.331Z,74.60
2019-02-06T13:28:45.773Z,74.92
2019-02-06T13:31:17.289Z,75.31
2019-02-06T13:33:48.769Z,73.60
2019-02-06T13:36:20.572Z,74.34
2019-02-06T13:38:52.385Z,73.61
2019-02-06T13:41:23.943Z,73.94
2019-02-06T13:43:55.403Z,74.54
2019-02-06T13:46:27.221Z,73.88
2019-02-06T13:48:59.015Z,74.14
2019-02-06T13:51:30.579Z,73.96
2019-02-06T13:54:02.047Z,74.26
2019-02-06T13:56:33.592Z,73.70
2019-02-06T13:59:07.309Z,73.74
2019-02-06T14:01:38.263Z,74.82
2019-02-06T14:04:09.641Z,74.47
2019-02-06T14:06:42.111Z,73.36
2019-02-06T14:09:22.543Z,75.17
2019-02-06T14:11:49.377Z,76.06
2019-02-06T14:14:21.234Z,75.95
2019-02-06T14:16:52.835Z,75.84
2019-02-06T14:19:24.221Z,74.50
2019-02-06T14:21:55.827Z,74.78
2019-02-06T14:24:56.569Z,75.81
2019-02-06T14:28:18.839Z,75.93
2019-02-06T14:31:51.955Z,76.36
2019-02-06T14:35:02.290Z,75.52
2019-02-06T14:38:17.259Z,76.62
2019-02-06T14:41:45.147Z,75.20
2019-02-06T14:45:21.419Z,75.12
2019-02-06T14:48:49.399Z,76.21
2019-02-06T14:52:12.247Z,76.07
2019-02-06T14:55:16.782Z,76.34
2019-02-06T14:58:40.229Z,76.96
2019-02-06T15:01:26.407Z,76.23
2019-02-06T15:04:41.591Z,76.32
2019-02-06T15:07:46.815Z,76.19
2019-02-06T15:11:25.798Z,75.97
2019-02-06T15:15:02.945Z,76.42
2019-02-06T15:18:15.070Z,75.94
2019-02-06T15:21:38.161Z,76.68
2019-02-06T15:25:21.925Z,76.97
2019-02-06T15:28:28.029Z,77.32
2019-02-06T15:32:08.138Z,76.94
2019-02-06T15:35:48.501Z,77.77
2019-02-06T15:39:23.124Z,78.58
2019-02-06T15:42:14.341Z,78.16
2019-02-06T15:46:03.150Z,78.19
2019-02-06T15:49:04.575Z,78.45
2019-02-06T15:52:38.891Z,78.83
2019-02-06T15:56:35.359Z,78.47
2019-02-06T15:59:50.706Z,79.76
2019-02-06T16:03:13.732Z,80.52
2019-02-06T16:06:23.314Z,79.20
2019-02-06T16:09:51.617Z,80.10
2019-02-06T16:13:15.829Z,80.95
2019-02-06T16:16:59.100Z,82.33
2019-02-06T16:20:48.619Z,80.95
2019-02-06T16:24:28.140Z,81.08
2019-02-06T16:27:48.257Z,79.95
2019-02-06T16:31:16.332Z,80.96
2019-02-06T16:34:34.878Z,80.51
2019-02-06T16:37:56.825Z,80.71
2019-02-06T16:41:40.643Z,81.10
2019-02-06T16:45:07.040Z,81.19
2019-02-06T16:48:13.260Z,81.46
2019-02-06T16:50:56.003Z,81.39
2019-02-06T16:54:34.430Z,81.63
2019-02-06T16:57:47.168Z,80.56
2019-02-06T17:01:58.340Z,82.30
2019-02-06T17:05:31.033Z,81.00
2019-02-06T17:08:42.167Z,81.11
2019-02-06T17:11:39.588Z,82.26
2019-02-06T17:15:13.282Z,81.12
2019-02-06T17:18:35.205Z,80.19
2019-02-06T17:21:59.324Z,81.70
2019-02-06T17:25:26.575Z,81.60
2019-02-06T17:28:54.113Z,81.40
2019-02-06T17:32:12.085Z,80.35
2019-02-06T17:36:05.634Z,81.56
2019-02-06T17:39:40.165Z,80.66
2019-02-06T17:43:11.938Z,80.77
2019-02-06T17:46:06.106Z,80.93
2019-02-06T17:49:24.323Z,82.51
2019-02-06T17:52:50.461Z,81.88
2019-02-06T17:55:25.746Z,80.78
2019-02-06T17:58:07.344Z,80.42
2019-02-06T18:01:22.882Z,80.99
2019-02-06T18:04:02.553Z,81.02
2019-02-06T18:06:34.019Z,81.31
2019-02-06T18:09:17.488Z,82.00
2019-02-06T18:11:52.339Z,81.67
2019-02-06T18:14:23.844Z,83.29
2019-02-06T18:16:55.298Z,84.45
2019-02-06T18:19:26.901Z,83.68
2019-02-06T18:21:58.474Z,82.00
2019-02-06T18:24:29.963Z,82.01
2019-02-06T18:27:02.040Z,81.54
2019-02-06T18:29:33.577Z,82.72
2019-02-06T18:32:05.744Z,83.23
2019-02-06T18:34:37.293Z,83.12
2019-02-06T18:37:08.850Z,82.70
2019-02-06T18:39:40.364Z,83.03
2019-02-06T18:42:12.234Z,82.62
2019-02-06T18:44:43.749Z,81.94
2019-02-06T18:47:15.263Z,81.59
2019-02-06T18:49:48.527Z,82.33
2019-02-06T18:52:20.705Z,82.82
2019-02-06T18:54:52.353Z,82.96
2019-02-06T18:57:23.970Z,82.64
2019-02-06T18:59:57.345Z,83.12
2019-02-06T19:02:30.663Z,82.69
2019-02-06T19:05:03.583Z,82.55
2019-02-06T19:07:35.106Z,83.67
2019-02-06T19:10:10.043Z,82.95
2019-02-06T19:12:48.180Z,82.78
2019-02-06T19:15:18.494Z,84.44
2019-02-06T19:17:50.798Z,83.32
2019-02-06T19:20:22.432Z,84.28
2019-02-06T19:22:53.926Z,83.74
2019-02-06T19:25:26.692Z,84.55
2019-02-06T19:27:59.415Z,85.01
2019-02-06T19:30:36.225Z,84.15
2019-02-06T19:33:08.410Z,83.89
2019-02-06T19:35:39.880Z,84.43
2019-02-06T19:38:11.342Z,84.59
2019-02-06T19:40:42.991Z,84.73
2019-02-06T19:43:14.619Z,84.96
2019-02-06T19:45:49.953Z,86.22
2019-02-06T19:48:22.458Z,86.98
2019-02-06T19:50:56.789Z,85.09
2019-02-06T19:53:30.470Z,85.91
2019-02-06T19:56:02.132Z,84.79
2019-02-06T19:58:35.533Z,85.36
2019-02-06T20:01:07.160Z,85.99
2019-02-06T20:03:38.713Z,86.63
2019-02-06T20:06:28.750Z,86.23
2019-02-06T20:09:05.506Z,87.08
2019-02-06T20:11:38.668Z,85.73
2019-02-06T20:14:10.847Z,86.30
2019-02-06T20:16:44.396Z,86.38
2019-02-06T20:19:15.975Z,85.14
2019-02-06T20:21:47.755Z,87.08
2019-02-06T20:24:20.576Z,87.18
2019-02-06T20:26:52.034Z,88.06
2019-02-06T20:29:23.509Z,86.62
2019-02-06T20:31:55.011Z,87.39
2019-02-06T20:34:26.765Z,87.82
2019-02-06T20:36:58.210Z,87.70
2019-02-06T20:39:29.823Z,87.63
2019-02-06T20:42:01.303Z,87.33
2019-02-06T20:44:34.094Z,86.96
2019-02-06T20:47:05.622Z,87.04
2019-02-06T20:49:40.338Z,85.94
2019-02-06T20:52:11.813Z,84.57
2019-02-06T20:54:43.522Z,85.38
2019-02-06T20:57:16.564Z,86.25
2019-02-06T20:59:51.191Z,87.33
2019-02-06T21:02:23.023Z,88.04
2019-02-06T21:04:54.543Z,87.57
2019-02-06T21:07:26.055Z,87.18
2019-02-06T21:09:57.654Z,86.69
2019-02-06T21:12:29.278Z,85.22
2019-02-06T21:15:01.236Z,84.72
2019-02-06T21:17:34.289Z,84.45
2019-02-06T21:20:08.508Z,84.86
2019-02-06T21:22:42.617Z,85.92
2019-02-06T21:25:19.060Z,84.88
2019-02-06T21:27:51.540Z,85.61
2019-02-06T21:30:26.539Z,87.12
2019-02-06T21:33:00.511Z,88.80
2019-02-06T21:35:34.779Z,88.68
2019-02-06T21:38:06.457Z,87.48
2019-02-06T21:40:38.005Z,87.87
2019-02-06T21:43:09.793Z,86.78
2019-02-06T21:45:41.264Z,86.79
2019-02-06T21:48:12.742Z,87.27
2019-02-06T21:50:44.849Z,86.71
2019-02-06T21:53:16.274Z,86.81
2019-02-06T21:55:47.773Z,86.53
2019-02-06T21:58:19.216Z,86.18
2019-02-06T22:00:50.735Z,85.99
2019-02-06T22:03:22.249Z,86.13
2019-02-06T22:05:53.744Z,86.24
2019-02-06T22:08:25.195Z,86.02
2019-02-06T22:10:56.739Z,86.22
2019-02-06T22:13:28.247Z,88.63
2019-02-06T22:16:02.553Z,88.44
2019-02-06T22:18:34.053Z,87.23
2019-02-06T22:21:05.549Z,88.26
2019-02-06T22:23:37.063Z,90.07
2019-02-06T22:26:08.611Z,88.40
2019-02-06T22:28:40.079Z,86.89
2019-02-06T22:31:13.317Z,87.58
2019-02-06T22:33:46.947Z,87.36
2019-02-06T22:36:18.084Z,86.91
2019-02-06T22:38:49.556Z,88.07
2019-02-06T22:41:21.039Z,87.53
2019-02-06T22:43:52.749Z,87.88
2019-02-06T22:46:27.084Z,89.63
2019-02-06T22:48:58.513Z,88.87
2019-02-06T22:51:30.499Z,90.20
2019-02-06T22:54:02.068Z,88.49
2019-02-06T22:56:33.641Z,88.01
2019-02-06T22:59:05.366Z,88.54
2019-02-06T23:01:48.689Z,88.91
2019-02-06T23:04:21.530Z,87.75
2019-02-06T23:06:53.133Z,89.19
2019-02-06T23:09:26.919Z,88.95
2019-02-06T23:11:59.924Z,87.91
2019-02-06T23:14:31.695Z,87.85
2019-02-06T23:17:03.201Z,88.45
2019-02-06T23:19:36.953Z,88.62
2019-02-06T23:22:09.304Z,89.43
2019-02-06T23:24:40.743Z,86.96
2019-02-06T23:27:12.299Z,87.16
2019-02-06T23:29:43.799Z,86.64
2019-02-06T23:32:15.292Z,86.18
2019-02-06T23:34:46.753Z,87.05
2019-02-06T23:37:18.241Z,87.18
2019-02-06T23:39:52.837Z,87.27
2019-02-06T23:42:24.321Z,86.19
2019-02-06T23:44:55.792Z,86.79
2019-02-06T23:47:27.321Z,86.75
2019-02-06T23:50:00.393Z,88.86
2019-02-06T23:52:32.028Z,87.04
2019-02-06T23:55:05.532Z,86.65
2019-02-06T23:57:37.031Z,87.68
